createdAt,value
2023-08-15T00:02:19.747Z,2.53
2023-08-15T00:04:47.994Z,2.80
2023-08-15T00:07:15.843Z,2.63
2023-08-15T00:09:43.828Z,2.92
2023-08-15T00:12:11.696Z,3.00
2023-08-15T00:14:39.739Z,2.72
2023-08-15T00:17:08.424Z,2.50
2023-08-15T00:19:37.677Z,2.95
2023-08-15T00:22:05.707Z,2.33
2023-08-15T00:24:33.707Z,3.47
2023-08-15T00:27:01.644Z,3.03
2023-08-15T00:29:29.853Z,2.70
2023-08-15T00:31:57.736Z,2.85
2023-08-15T00:34:25.666Z,2.97
2023-08-15T00:36:55.105Z,3.20
2023-08-15T00:39:23.220Z,2.55
2023-08-15T00:41:51.244Z,3.10
2023-08-15T00:44:19.340Z,2.65
2023-08-15T00:46:47.435Z,3.33
2023-08-15T00:49:15.406Z,3.28
2023-08-15T00:51:43.883Z,2.90
2023-08-15T00:54:13.205Z,2.80
2023-08-15T00:56:41.778Z,2.83
2023-08-15T00:59:12.876Z,3.25
2023-08-15T01:01:41.402Z,3.22
2023-08-15T01:04:10.160Z,2.65
2023-08-15T01:06:38.103Z,2.97
2023-08-15T01:09:06.294Z,2.42
2023-08-15T01:11:47.257Z,3.08
2023-08-15T01:14:21.464Z,2.88
2023-08-15T01:16:52.813Z,3.05
2023-08-15T01:19:30.953Z,2.83
2023-08-15T01:22:01.250Z,2.60
2023-08-15T01:24:32.034Z,2.40
2023-08-15T01:27:01.139Z,2.72
2023-08-15T01:29:29.093Z,2.35
2023-08-15T01:32:06.775Z,2.50
2023-08-15T01:34:38.520Z,2.20
2023-08-15T01:37:21.810Z,2.10
2023-08-15T01:39:52.791Z,2.47
2023-08-15T01:42:23.022Z,2.70
2023-08-15T01:44:52.014Z,2.85
2023-08-15T01:47:20.291Z,1.85
2023-08-15T01:49:48.443Z,2.10
2023-08-15T01:52:16.427Z,2.03
2023-08-15T01:54:44.492Z,2.15
2023-08-15T01:57:13.764Z,2.28
2023-08-15T01:59:44.826Z,2.05
2023-08-15T02:02:13.060Z,2.10
2023-08-15T02:04:40.984Z,2.08
2023-08-15T02:07:08.902Z,2.03
2023-08-15T02:09:36.885Z,1.77
2023-08-15T02:12:05.064Z,2.00
2023-08-15T02:14:35.058Z,2.33
2023-08-15T02:17:03.389Z,2.15
2023-08-15T02:19:31.285Z,2.40
2023-08-15T02:21:59.650Z,1.98
2023-08-15T02:24:27.633Z,1.83
2023-08-15T02:26:55.556Z,2.38
2023-08-15T02:29:23.568Z,2.60
2023-08-15T02:31:53.360Z,1.90
2023-08-15T02:34:21.413Z,2.25
2023-08-15T02:36:49.621Z,2.58
2023-08-15T02:39:18.378Z,2.25
2023-08-15T02:41:46.468Z,2.10
2023-08-15T02:44:14.679Z,2.03
2023-08-15T02:46:42.646Z,2.25
2023-08-15T02:49:12.019Z,2.28
2023-08-15T02:51:39.989Z,2.00
2023-08-15T02:54:08.632Z,2.53
2023-08-15T02:56:36.512Z,2.10
2023-08-15T02:59:04.614Z,1.83
2023-08-15T03:01:33.334Z,2.20
2023-08-15T03:04:01.277Z,2.22
2023-08-15T03:06:30.595Z,2.58
2023-08-15T03:08:58.777Z,2.78
2023-08-15T03:11:26.818Z,3.05
2023-08-15T03:13:56.018Z,2.63
2023-08-15T03:16:24.073Z,2.67
2023-08-15T03:18:51.968Z,2.97
2023-08-15T03:21:20.134Z,3.10
2023-08-15T03:23:49.761Z,3.30
2023-08-15T03:26:17.780Z,2.90
2023-08-15T03:28:45.748Z,3.30
2023-08-15T03:31:13.751Z,3.10
2023-08-15T03:33:41.747Z,3.45
2023-08-15T03:36:09.873Z,3.30
2023-08-15T03:38:37.830Z,2.85
2023-08-15T03:41:08.635Z,3.03
2023-08-15T03:43:37.757Z,3.35
2023-08-15T03:46:07.179Z,2.88
2023-08-15T03:48:36.985Z,3.45
2023-08-15T03:51:06.795Z,2.88
2023-08-15T03:53:34.964Z,3.67
2023-08-15T03:56:02.994Z,3.85
2023-08-15T03:58:32.402Z,3.90
2023-08-15T04:01:02.212Z,3.15
2023-08-15T04:03:30.692Z,3.40
2023-08-15T04:05:58.674Z,3.28
2023-08-15T04:08:27.028Z,2.80
2023-08-15T04:10:55.626Z,3.10
2023-08-15T04:13:23.588Z,2.88
2023-08-15T04:15:53.150Z,3.33
2023-08-15T04:18:21.091Z,3.20
2023-08-15T04:20:49.943Z,2.55
2023-08-15T04:23:18.231Z,3.10
2023-08-15T04:25:47.111Z,3.03
2023-08-15T04:28:15.165Z,2.72
2023-08-15T04:30:43.256Z,3.00
2023-08-15T04:33:12.679Z,3.28
2023-08-15T04:35:40.769Z,3.25
2023-08-15T04:38:08.813Z,3.38
2023-08-15T04:40:40.962Z,2.75
2023-08-15T04:43:09.704Z,4.10
2023-08-15T04:45:41.683Z,3.08
2023-08-15T04:48:14.997Z,3.28
2023-08-15T04:50:42.932Z,3.05
2023-08-15T04:53:10.992Z,3.05
2023-08-15T04:55:38.979Z,2.80
2023-08-15T04:58:10.362Z,3.10
2023-08-15T05:00:38.716Z,2.80
2023-08-15T05:03:07.027Z,2.67
2023-08-15T05:05:36.440Z,3.45
2023-08-15T05:08:04.663Z,3.00
2023-08-15T05:10:33.392Z,3.28
2023-08-15T05:13:01.362Z,3.17
2023-08-15T05:15:30.061Z,3.25
2023-08-15T05:17:58.088Z,3.22
2023-08-15T05:20:26.135Z,3.17
2023-08-15T05:22:55.595Z,2.72
2023-08-15T05:25:23.741Z,3.47
2023-08-15T05:27:52.074Z,2.50
2023-08-15T05:30:20.379Z,3.03
2023-08-15T05:32:48.480Z,3.10
2023-08-15T05:35:16.710Z,3.47
2023-08-15T05:37:44.726Z,2.38
2023-08-15T05:40:14.085Z,2.95
2023-08-15T05:42:41.999Z,2.88
2023-08-15T05:45:11.310Z,3.17
2023-08-15T05:47:39.329Z,3.15
2023-08-15T05:50:08.014Z,3.58
2023-08-15T05:52:36.182Z,2.92
2023-08-15T05:55:04.335Z,3.10
2023-08-15T05:57:33.625Z,3.50
2023-08-15T06:00:01.567Z,2.70
2023-08-15T06:02:29.884Z,2.83
2023-08-15T06:04:58.558Z,3.08
2023-08-15T06:07:26.695Z,3.30
2023-08-15T06:09:54.741Z,3.05
2023-08-15T06:12:22.825Z,2.60
2023-08-15T06:14:52.248Z,2.97
2023-08-15T06:17:20.729Z,3.90
2023-08-15T06:19:48.999Z,3.58
2023-08-15T06:22:17.549Z,3.10
2023-08-15T06:24:45.604Z,3.70
2023-08-15T06:27:13.666Z,3.00
2023-08-15T06:29:41.688Z,2.97
2023-08-15T06:32:26.751Z,2.72
2023-08-15T06:34:54.864Z,3.05
2023-08-15T06:37:23.255Z,2.55
2023-08-15T06:39:51.488Z,2.97
2023-08-15T06:42:19.762Z,3.38
2023-08-15T06:44:48.978Z,2.92
2023-08-15T06:47:18.688Z,2.72
2023-08-15T06:49:46.777Z,2.67
2023-08-15T06:52:14.704Z,2.80
2023-08-15T06:54:42.610Z,2.95
2023-08-15T06:57:11.254Z,2.85
2023-08-15T06:59:39.822Z,3.22
2023-08-15T07:02:07.896Z,2.90
2023-08-15T07:04:41.343Z,3.03
2023-08-15T07:07:12.862Z,3.17
2023-08-15T07:09:40.826Z,3.38
2023-08-15T07:12:11.077Z,2.50
2023-08-15T07:14:39.028Z,3.08
2023-08-15T07:17:07.510Z,3.30
2023-08-15T07:19:36.869Z,2.92
2023-08-15T07:22:05.220Z,3.08
2023-08-15T07:24:33.260Z,2.85
2023-08-15T07:27:01.277Z,2.95
2023-08-15T07:29:29.196Z,3.13
2023-08-15T07:31:57.514Z,2.90
2023-08-15T07:34:25.546Z,3.05
2023-08-15T07:36:54.871Z,3.47
2023-08-15T07:39:22.890Z,2.95
2023-08-15T07:41:50.902Z,2.42
2023-08-15T07:44:18.857Z,3.15
2023-08-15T07:46:48.114Z,2.80
2023-08-15T07:49:16.061Z,3.33
2023-08-15T07:51:43.998Z,2.90
2023-08-15T07:54:13.406Z,2.63
2023-08-15T07:56:41.603Z,3.03
2023-08-15T07:59:12.624Z,2.85
2023-08-15T08:01:40.661Z,2.53
2023-08-15T08:04:09.476Z,3.17
2023-08-15T08:06:40.958Z,3.47
2023-08-15T08:09:10.133Z,3.00
2023-08-15T08:11:40.336Z,3.30
2023-08-15T08:14:09.834Z,3.75
2023-08-15T08:16:37.839Z,3.47
2023-08-15T08:19:05.962Z,4.25
2023-08-15T08:21:34.642Z,3.95
2023-08-15T08:24:02.860Z,3.50
2023-08-15T08:26:31.279Z,3.22
2023-08-15T08:29:00.796Z,3.20
2023-08-15T08:31:28.790Z,3.42
2023-08-15T08:33:57.648Z,3.08
2023-08-15T08:36:25.636Z,3.45
2023-08-15T08:38:53.494Z,3.08
2023-08-15T08:41:21.436Z,3.22
2023-08-15T08:43:50.127Z,3.50
2023-08-15T08:46:21.484Z,3.20
2023-08-15T08:48:50.640Z,2.53
2023-08-15T08:51:23.265Z,3.58
2023-08-15T08:53:51.338Z,3.38
2023-08-15T08:56:22.153Z,3.15
2023-08-15T08:58:52.582Z,3.70
2023-08-15T09:01:23.448Z,3.25
2023-08-15T09:03:51.793Z,3.33
2023-08-15T09:06:20.271Z,2.92
2023-08-15T09:08:48.522Z,3.47
2023-08-15T09:11:16.523Z,3.75
2023-08-15T09:13:48.733Z,3.55
2023-08-15T09:16:17.548Z,4.25
2023-08-15T09:18:49.559Z,4.75
2023-08-15T09:21:17.686Z,3.83
2023-08-15T09:23:46.989Z,4.53
2023-08-15T09:26:17.560Z,4.93
2023-08-15T09:28:46.602Z,4.72
2023-08-15T09:31:14.618Z,5.25
2023-08-15T09:33:43.408Z,4.63
2023-08-15T09:36:12.951Z,4.40
2023-08-15T09:38:41.604Z,3.97
2023-08-15T09:41:12.968Z,4.28
2023-08-15T09:43:51.806Z,4.65
2023-08-15T09:46:20.801Z,4.25
2023-08-15T09:48:49.966Z,4.22
2023-08-15T09:51:20.540Z,3.80
2023-08-15T09:53:50.314Z,4.22
2023-08-15T09:56:19.373Z,4.18
2023-08-15T09:58:47.899Z,3.90
2023-08-15T10:01:20.289Z,3.65
2023-08-15T10:03:50.852Z,3.38
2023-08-15T10:06:21.958Z,3.22
2023-08-15T10:08:50.626Z,2.85
2023-08-15T10:11:20.092Z,3.67
2023-08-15T10:13:50.621Z,3.15
2023-08-15T10:16:19.116Z,3.80
2023-08-15T10:18:54.602Z,3.10
2023-08-15T10:21:24.505Z,3.05
2023-08-15T10:23:56.058Z,3.67
2023-08-15T10:26:24.977Z,3.13
2023-08-15T10:28:53.599Z,3.10
2023-08-15T10:31:36.560Z,2.92
2023-08-15T10:34:05.073Z,3.30
2023-08-15T10:36:34.415Z,2.72
2023-08-15T10:39:06.927Z,3.30
2023-08-15T10:41:36.967Z,2.83
2023-08-15T10:44:07.830Z,2.88
2023-08-15T10:46:37.871Z,2.80
2023-08-15T10:49:09.337Z,3.00
2023-08-15T10:51:39.822Z,2.78
2023-08-15T10:54:09.226Z,2.88
2023-08-15T10:56:38.307Z,2.70
2023-08-15T10:59:09.048Z,2.95
2023-08-15T11:01:38.973Z,2.53
2023-08-15T11:04:10.387Z,2.92
2023-08-15T11:06:48.132Z,2.65
2023-08-15T11:09:16.967Z,2.55
2023-08-15T11:11:45.935Z,2.80
2023-08-15T11:14:19.012Z,2.28
2023-08-15T11:16:48.087Z,2.63
2023-08-15T11:19:18.000Z,2.85
2023-08-15T11:21:48.669Z,2.28
2023-08-15T11:24:16.786Z,2.67
2023-08-15T11:26:45.552Z,3.00
2023-08-15T11:29:14.318Z,2.45
2023-08-15T11:31:43.212Z,2.88
2023-08-15T11:34:12.871Z,2.75
2023-08-15T11:36:41.312Z,2.70
2023-08-15T11:39:14.989Z,2.53
2023-08-15T11:41:43.893Z,3.13
2023-08-15T11:44:12.028Z,2.90
2023-08-15T11:46:53.930Z,3.30
2023-08-15T11:49:24.163Z,3.00
2023-08-15T11:51:52.611Z,2.40
2023-08-15T11:54:27.977Z,2.70
2023-08-15T11:56:56.849Z,2.55
2023-08-15T11:59:25.352Z,3.00
2023-08-15T12:01:53.583Z,2.22
2023-08-15T12:04:21.508Z,2.80
2023-08-15T12:06:49.445Z,2.67
2023-08-15T12:09:17.884Z,2.20
2023-08-15T12:11:47.154Z,2.72
2023-08-15T12:14:22.150Z,2.80
2023-08-15T12:16:50.743Z,2.65
2023-08-15T12:19:22.441Z,2.85
2023-08-15T12:21:54.130Z,2.88
2023-08-15T12:24:22.053Z,2.47
2023-08-15T12:26:51.466Z,2.88
2023-08-15T12:29:19.909Z,2.60
2023-08-15T12:32:08.376Z,2.17
2023-08-15T12:34:36.628Z,2.00
2023-08-15T12:37:04.803Z,2.15
2023-08-15T12:39:33.177Z,2.30
2023-08-15T12:42:03.146Z,2.30
2023-08-15T12:44:31.169Z,1.85
2023-08-15T12:46:59.161Z,2.10
2023-08-15T12:49:27.558Z,1.85
2023-08-15T12:51:55.553Z,1.52
2023-08-15T12:54:23.633Z,2.03
2023-08-15T12:56:51.676Z,1.42
2023-08-15T12:59:20.988Z,1.42
2023-08-15T13:01:49.144Z,1.40
2023-08-15T13:04:17.230Z,1.45
2023-08-15T13:06:45.183Z,1.50
2023-08-15T13:09:13.225Z,1.48
2023-08-15T13:11:41.347Z,1.20
2023-08-15T13:14:09.907Z,1.20
2023-08-15T13:16:39.701Z,1.35
2023-08-15T13:19:07.747Z,1.10
2023-08-15T13:21:35.896Z,1.42
2023-08-15T13:24:04.359Z,1.00
2023-08-15T13:26:32.405Z,1.40
2023-08-15T13:29:01.427Z,1.08
2023-08-15T13:31:31.354Z,1.13
2023-08-15T13:34:00.852Z,1.15
2023-08-15T13:36:28.859Z,0.80
2023-08-15T13:38:56.917Z,1.20
2023-08-15T13:41:24.990Z,0.90
2023-08-15T13:43:53.072Z,1.27
2023-08-15T13:46:21.414Z,1.15
2023-08-15T13:48:49.375Z,1.08
2023-08-15T13:51:20.508Z,1.20
2023-08-15T13:53:50.041Z,1.30
2023-08-15T13:56:18.783Z,1.00
2023-08-15T13:58:46.819Z,1.05
2023-08-15T14:01:14.750Z,1.10
2023-08-15T14:03:42.750Z,1.10
2023-08-15T14:06:10.800Z,1.10
2023-08-15T14:11:10.826Z,1.15
2023-08-15T14:13:38.812Z,1.08
2023-08-15T14:16:07.007Z,1.20
2023-08-15T14:18:35.376Z,1.33
2023-08-15T14:21:05.255Z,1.20
2023-08-15T14:23:33.220Z,1.38
2023-08-15T14:26:02.646Z,1.10
2023-08-15T14:28:30.691Z,1.10
2023-08-15T14:30:59.020Z,1.30
2023-08-15T14:33:28.592Z,1.60
2023-08-15T14:35:57.799Z,1.17
2023-08-15T14:38:26.839Z,1.42
2023-08-15T14:40:55.055Z,1.30
2023-08-15T14:43:24.423Z,1.15
2023-08-15T14:45:52.492Z,1.15
2023-08-15T14:48:20.480Z,1.10
2023-08-15T14:50:48.716Z,1.20
2023-08-15T14:53:16.724Z,1.10
2023-08-15T14:55:44.731Z,1.20
2023-08-15T14:58:12.912Z,1.10
2023-08-15T15:00:42.211Z,1.10
2023-08-15T15:03:10.612Z,0.98
2023-08-15T15:05:38.697Z,1.00
2023-08-15T15:08:08.610Z,1.10
2023-08-15T15:10:36.735Z,1.15
2023-08-15T15:13:04.930Z,1.02
2023-08-15T15:15:51.502Z,1.50
2023-08-15T15:18:22.174Z,1.23
2023-08-15T15:20:50.644Z,1.30
2023-08-15T15:23:19.242Z,0.90
2023-08-15T15:25:47.831Z,1.20
2023-08-15T15:28:15.879Z,1.35
2023-08-15T15:30:44.048Z,1.70
2023-08-15T15:33:12.031Z,1.50
2023-08-15T15:35:41.367Z,1.10
2023-08-15T15:38:09.702Z,1.20
2023-08-15T15:40:37.689Z,1.00
2023-08-15T15:43:06.046Z,1.17
2023-08-15T15:45:33.957Z,1.20
2023-08-15T15:48:02.102Z,1.10
2023-08-15T15:50:34.775Z,1.17
2023-08-15T15:53:04.696Z,1.30
2023-08-15T15:55:33.027Z,1.27
2023-08-15T15:58:01.216Z,1.20
2023-08-15T16:00:29.407Z,1.50
2023-08-15T16:02:59.798Z,1.30
2023-08-15T16:05:27.986Z,1.48
2023-08-15T16:07:55.885Z,1.45
2023-08-15T16:10:25.454Z,1.60
2023-08-15T16:12:53.440Z,1.80
2023-08-15T16:15:21.429Z,1.48
2023-08-15T16:17:50.075Z,1.58
2023-08-15T16:20:18.241Z,1.30
2023-08-15T16:22:46.228Z,1.67
2023-08-15T16:25:14.252Z,1.35
2023-08-15T16:27:43.591Z,1.58
2023-08-15T16:30:17.937Z,1.38
2023-08-15T16:32:49.581Z,1.00
2023-08-15T16:35:17.961Z,1.13
2023-08-15T16:37:46.851Z,1.23
2023-08-15T16:40:14.964Z,1.50
2023-08-15T16:42:44.348Z,1.42
2023-08-15T16:45:12.641Z,1.25
2023-08-15T16:47:40.716Z,1.60
2023-08-15T16:50:09.768Z,1.50
2023-08-15T16:52:37.723Z,1.80
2023-08-15T16:55:06.457Z,1.60
2023-08-15T16:57:34.498Z,1.60
2023-08-15T17:00:04.211Z,1.45
2023-08-15T17:02:32.273Z,1.80
2023-08-15T17:05:00.603Z,1.60
2023-08-15T17:07:31.024Z,1.38
2023-08-15T17:09:59.047Z,1.50
2023-08-15T17:12:27.401Z,1.40
2023-08-15T17:14:56.099Z,1.17
2023-08-15T17:17:25.646Z,1.92
2023-08-15T17:19:54.458Z,2.00
2023-08-15T17:22:22.745Z,1.58
2023-08-15T17:24:51.121Z,1.35
2023-08-15T17:27:19.214Z,1.65
2023-08-15T17:29:47.151Z,1.05
2023-08-15T17:32:15.099Z,1.35
2023-08-15T17:34:44.426Z,1.20
2023-08-15T17:37:12.419Z,1.05
2023-08-15T17:39:40.489Z,1.15
2023-08-15T17:42:08.729Z,1.13
2023-08-15T17:44:36.745Z,1.38
2023-08-15T17:47:05.462Z,1.20
2023-08-15T17:49:33.517Z,1.60
2023-08-15T17:52:02.918Z,1.58
2023-08-15T17:54:30.974Z,1.33
2023-08-15T17:56:58.874Z,1.30
2023-08-15T17:59:26.904Z,1.13
2023-08-15T18:01:55.534Z,1.00
2023-08-15T18:04:23.653Z,1.50
2023-08-15T18:06:51.693Z,1.30
2023-08-15T18:09:22.438Z,1.00
2023-08-15T18:11:52.704Z,1.10
2023-08-15T18:14:21.804Z,1.05
2023-08-15T18:16:52.670Z,1.00
2023-08-15T18:19:21.009Z,1.15
2023-08-15T18:21:49.029Z,1.15
2023-08-15T18:24:17.943Z,1.30
2023-08-15T18:26:47.285Z,1.45
2023-08-15T18:29:15.195Z,1.10
2023-08-15T18:31:43.253Z,1.10
2023-08-15T18:34:11.297Z,1.33
2023-08-15T18:36:39.255Z,1.00
2023-08-15T18:39:09.776Z,1.27
2023-08-15T18:41:37.766Z,1.23
2023-08-15T18:44:08.596Z,0.95
2023-08-15T18:46:38.459Z,1.00
2023-08-15T18:49:06.940Z,1.30
2023-08-15T18:51:35.012Z,1.15
2023-08-15T18:54:03.090Z,1.65
2023-08-15T18:56:31.360Z,1.10
2023-08-15T18:58:59.847Z,1.65
2023-08-15T19:01:29.360Z,1.48
2023-08-15T19:03:59.834Z,1.40
2023-08-15T19:06:27.872Z,1.30
2023-08-15T19:08:55.843Z,1.20
2023-08-15T19:11:24.922Z,1.20
2023-08-15T19:13:52.853Z,1.30
2023-08-15T19:16:20.905Z,1.13
2023-08-15T19:18:50.608Z,1.15
2023-08-15T19:21:18.910Z,0.93
2023-08-15T19:23:48.968Z,1.15
2023-08-15T19:26:16.879Z,1.30
2023-08-15T19:28:49.342Z,1.40
2023-08-15T19:31:18.042Z,1.42
2023-08-15T19:33:46.055Z,1.00
2023-08-15T19:36:15.389Z,1.20
2023-08-15T19:38:43.600Z,2.20
2023-08-15T19:41:14.221Z,1.60
2023-08-15T19:43:42.234Z,1.42
2023-08-15T19:46:10.457Z,1.30
2023-08-15T19:48:38.537Z,1.30
2023-08-15T19:51:06.572Z,1.45
2023-08-15T19:53:35.906Z,1.70
2023-08-15T19:56:03.851Z,1.65
2023-08-15T19:58:31.757Z,1.40
2023-08-15T20:00:59.905Z,1.35
2023-08-15T20:03:27.871Z,0.90
2023-08-15T20:05:55.862Z,1.33
2023-08-15T20:08:23.943Z,1.60
2023-08-15T20:10:55.530Z,1.95
2023-08-15T20:13:28.750Z,1.63
2023-08-15T20:16:02.251Z,1.55
2023-08-15T20:18:33.139Z,2.20
2023-08-15T20:21:03.338Z,2.08
2023-08-15T20:23:31.320Z,2.40
2023-08-15T20:26:01.491Z,2.30
2023-08-15T20:28:29.971Z,2.15
2023-08-15T20:30:58.011Z,1.77
2023-08-15T20:33:26.021Z,1.52
2023-08-15T20:35:53.969Z,1.50
2023-08-15T20:38:22.042Z,1.45
2023-08-15T20:40:50.250Z,1.50
2023-08-15T20:43:19.585Z,1.42
2023-08-15T20:45:47.489Z,1.33
2023-08-15T20:48:15.469Z,1.92
2023-08-15T20:50:43.575Z,1.90
2023-08-15T20:53:11.920Z,1.80
2023-08-15T20:55:40.364Z,1.52
2023-08-15T20:58:09.651Z,1.70
2023-08-15T21:00:39.045Z,1.80
2023-08-15T21:03:07.479Z,1.90
2023-08-15T21:05:36.951Z,2.20
2023-08-15T21:08:05.677Z,2.45
2023-08-15T21:10:33.619Z,3.35
2023-08-15T21:13:01.570Z,5.78
2023-08-15T21:15:32.861Z,6.13
2023-08-15T21:18:02.234Z,5.72
2023-08-15T21:20:30.299Z,5.80
2023-08-15T21:22:58.724Z,5.15
2023-08-15T21:25:26.646Z,4.97
2023-08-15T21:27:54.734Z,4.45
2023-08-15T21:30:22.681Z,4.50
2023-08-15T21:32:50.954Z,4.65
2023-08-15T21:35:20.578Z,4.32
2023-08-15T21:37:48.601Z,4.50
2023-08-15T21:40:16.679Z,3.53
2023-08-15T21:42:44.685Z,5.15
2023-08-15T21:45:12.649Z,8.30
2023-08-15T21:47:40.763Z,8.85
2023-08-15T21:50:12.407Z,8.98
2023-08-15T21:52:41.764Z,8.93
2023-08-15T21:55:10.629Z,6.63
2023-08-15T21:57:38.703Z,6.33
2023-08-15T22:00:09.201Z,5.25
2023-08-15T22:02:38.777Z,4.28
2023-08-15T22:05:06.977Z,4.80
2023-08-15T22:07:34.925Z,3.72
2023-08-15T22:10:04.667Z,3.00
2023-08-15T22:12:32.781Z,3.17
2023-08-15T22:15:00.859Z,2.30
2023-08-15T22:17:43.066Z,2.35
2023-08-15T22:20:14.270Z,2.38
2023-08-15T22:22:42.439Z,1.90
2023-08-15T22:25:11.991Z,2.10
2023-08-15T22:27:40.050Z,2.05
2023-08-15T22:30:09.770Z,2.15
2023-08-15T22:32:37.827Z,1.98
2023-08-15T22:35:06.508Z,1.92
2023-08-15T22:37:34.450Z,1.83
2023-08-15T22:40:04.538Z,1.92
2023-08-15T22:42:34.093Z,2.20
2023-08-15T22:45:02.179Z,2.42
2023-08-15T22:47:30.394Z,1.98
2023-08-15T22:50:01.210Z,2.00
2023-08-15T22:52:29.486Z,2.17
2023-08-15T22:54:57.666Z,1.80
2023-08-15T22:57:25.611Z,2.03
2023-08-15T22:59:55.800Z,2.03
2023-08-15T23:02:23.694Z,1.92
2023-08-15T23:04:53.253Z,2.05
2023-08-15T23:07:21.640Z,2.13
2023-08-15T23:09:50.026Z,1.80
2023-08-15T23:12:18.397Z,1.90
2023-08-15T23:14:46.377Z,1.65
2023-08-15T23:17:15.677Z,1.92
2023-08-15T23:19:43.549Z,1.83
2023-08-15T23:22:11.521Z,2.15
2023-08-15T23:24:39.509Z,2.40
2023-08-15T23:27:08.721Z,1.90
2023-08-15T23:29:36.858Z,2.25
2023-08-15T23:32:05.246Z,1.90
2023-08-15T23:34:34.597Z,1.90
2023-08-15T23:37:02.509Z,2.40
2023-08-15T23:39:30.968Z,1.98
2023-08-15T23:41:58.899Z,2.63
2023-08-15T23:44:26.858Z,2.50
2023-08-15T23:46:54.872Z,2.00
2023-08-15T23:49:22.935Z,1.95
2023-08-15T23:51:52.303Z,2.22
2023-08-15T23:54:20.223Z,1.92
2023-08-15T23:56:48.462Z,2.15
2023-08-15T23:59:16.448Z,2.22
